Main page
METAR-TAF:

METAR-TAF

Airports :

Libreville International Airport

Libreville, Gabon

latitude: 00-27N, longitude: 009-25E, elevation: 12 m

Current weather observation

The report was made 41 minutes ago, at 08:30 UTC
Wind 6 kt from the South/Southwest, varying between South/Southeast and Southwest
Temperature 26°C
Humidity 79%
Pressure 1016 hPa
Visibility: 9000 m
Few clouds at a height of 1200 ft

METAR: FOOL 210830Z 20006KT 160V230 9000 FEW012 26/22 Q1016 NOSIG

Time: 10:11 (09:11 UTC)

Forecast

The report was made 4 hours and 11 minutes ago, at 05:00 UTC
Forecast valid from 21 at 06 UTC to 22 at 12 UTC
Wind 8 kt from the Southeast
Visibility 10 km or more
Scattered clouds at a height of 1100 ft
Broken clouds at a height of 3000 ft

TAF: FOOL 210500Z 2106/2212 14008KT 9999 SCT011 BKN030

Weather observations and forecasts of more than 4000 airports (METAR and TAF reports).

The available stations are represented by yellow and red dots on the map.

Hover mouse over dot to see the name of the station.

Then click to see weather observations and forecasts.

To change the map : click on the green buttons with a black cross to zoom in, on the green button with a dash to zoom out, or on the green arrows for adjacent maps.


METAR-TAF: